Time;durP1;ratioP1;P1;durP2;ratioP2;P2;SDS_P1;SDS_P2;PMS_P1;PMS_P2;Temp;Humidity;BMP_temperature;BMP_pressure;BME280_temperature;BME280_humidity;BME280_pressure;Samples;Min_cycle;Max_cycle;Signal;HPM_P1;HPM_P2
2021/10/10 11:59:10;;;;;;;7.68;6.60;;;27.20;37.10;;;;;;5060213;28;20446;-50
2021/10/10 12:01:36;;;;;;;8.73;6.15;;;26.70;35.20;;;;;;5075621;28;20083;-51
2021/10/10 12:04:02;;;;;;;8.98;6.95;;;26.70;36.70;;;;;;5052811;28;20567;-50
2021/10/10 12:06:27;;;;;;;8.88;6.63;;;25.90;35.70;;;;;;5052672;28;20041;-50
2021/10/10 12:09:10;;;;;;;10.10;6.05;;;24.80;38.20;;;;;;5069914;28;20119;-49
2021/10/10 12:11:39;;;;;;;10.70;6.22;;;25.20;39.50;;;;;;5065133;28;20017;-50
2021/10/10 12:14:05;;;;;;;11.82;7.20;;;25.00;40.00;;;;;;5070382;28;20519;-50
2021/10/10 12:16:46;;;;;;;11.68;7.10;;;24.90;39.10;;;;;;5070548;28;20119;-50
2021/10/10 12:19:12;;;;;;;10.50;6.50;;;24.60;40.80;;;;;;5069922;28;20762;-48
2021/10/10 12:21:38;;;;;;;10.13;7.20;;;24.50;41.30;;;;;;5070519;28;20036;-50
2021/10/10 12:24:10;;;;;;;10.00;6.70;;;24.00;40.70;;;;;;5070589;28;20494;-49
2021/10/10 12:26:55;;;;;;;10.93;7.30;;;23.40;42.30;;;;;;5070199;28;20505;-47
2021/10/10 12:29:30;;;;;;;10.90;6.57;;;22.80;42.60;;;;;;5069893;28;20104;-48
2021/10/10 12:32:15;;;;;;;10.77;6.57;;;22.40;40.50;;;;;;5070568;28;20037;-49
2021/10/10 12:34:41;;;;;;;7.05;5.90;;;21.60;42.20;;;;;;5052440;28;20120;-50
2021/10/10 12:37:20;;;;;;;8.73;6.38;;;21.60;41.60;;;;;;5069517;28;20107;-49
2021/10/10 12:39:47;;;;;;;11.65;6.65;;;21.30;42.50;;;;;;5070226;28;20043;-48
2021/10/10 12:42:13;;;;;;;8.43;6.20;;;21.30;43.50;;;;;;5069916;28;20101;-49
2021/10/10 12:44:39;;;;;;;11.10;6.97;;;21.10;43.50;;;;;;5070031;28;20094;-48
2021/10/10 12:47:06;;;;;;;10.80;6.60;;;20.50;41.70;;;;;;5069552;28;20045;-49
2021/10/10 12:49:36;;;;;;;13.80;7.53;;;20.20;44.00;;;;;;5069775;28;20024;-49
2021/10/10 12:52:10;;;;;;;13.63;7.05;;;20.30;44.70;;;;;;5069324;28;20056;-48
2021/10/10 12:54:42;;;;;;;9.23;6.50;;;20.50;45.80;;;;;;5069808;28;20168;-48
2021/10/10 12:57:17;;;;;;;12.10;7.82;;;20.60;46.80;;;;;;5041899;28;20032;-49
2021/10/10 12:59:51;;;;;;;10.52;6.90;;;20.70;46.40;;;;;;5069099;28;20074;-49
2021/10/10 13:02:17;;;;;;;12.15;6.97;;;20.70;45.90;;;;;;5066262;28;20374;-49
2021/10/10 13:04:42;;;;;;;9.95;6.70;;;20.60;46.20;;;;;;5069605;28;20040;-48
2021/10/10 13:07:08;;;;;;;8.30;5.85;;;20.50;44.20;;;;;;5068988;28;20093;-48
2021/10/10 13:09:34;;;;;;;11.13;6.20;;;20.40;45.10;;;;;;5051478;28;20121;-49
2021/10/10 13:12:04;;;;;;;8.55;5.60;;;20.50;44.70;;;;;;5071577;28;20051;-50
2021/10/10 13:14:30;;;;;;;7.38;6.10;;;20.40;45.10;;;;;;5071172;28;20032;-50
2021/10/10 13:16:56;;;;;;;11.32;6.30;;;20.30;46.90;;;;;;5073593;28;20028;-49
2021/10/10 13:19:22;;;;;;;13.18;7.28;;;20.40;47.50;;;;;;5055776;28;20101;-49
2021/10/10 13:21:48;;;;;;;7.60;5.95;;;20.50;45.00;;;;;;5073969;28;20036;-48
2021/10/10 13:24:16;;;;;;;14.68;6.45;;;20.30;47.20;;;;;;5074028;28;20035;-47
2021/10/10 13:26:43;;;;;;;22.23;7.43;;;20.30;47.00;;;;;;5073888;28;20036;-47
2021/10/10 13:29:13;;;;;;;8.65;5.85;;;20.20;45.70;;;;;;5073096;28;20032;-51
2021/10/10 13:31:39;;;;;;;;;;;19.80;46.50;;;;;;5072099;28;20025;-48
2021/10/10 13:34:04;;;;;;;8.98;6.78;;;19.40;45.20;;;;;;5073386;28;19904;-48
2021/10/10 13:36:30;;;;;;;10.60;6.60;;;19.10;46.70;;;;;;5073810;28;20029;-49
2021/10/10 13:38:57;;;;;;;11.63;6.45;;;19.00;48.40;;;;;;5073141;28;20074;-46
2021/10/10 13:41:23;;;;;;;15.20;6.80;;;19.20;48.20;;;;;;5073715;28;20471;-47
2021/10/10 13:43:49;;;;;;;12.77;7.60;;;19.10;47.90;;;;;;5073679;28;20115;-50
2021/10/10 13:46:14;;;;;;;13.60;7.63;;;18.90;49.00;;;;;;5073622;28;20028;-50
2021/10/10 13:48:40;;;;;;;9.82;6.93;;;18.70;49.20;;;;;;5072707;28;20067;-50
2021/10/10 13:51:06;;;;;;;12.13;6.97;;;18.60;48.80;;;;;;5073474;28;20498;-50
2021/10/10 13:53:32;;;;;;;11.48;7.50;;;18.40;48.70;;;;;;5073344;28;20355;-49
2021/10/10 13:55:58;;;;;;;13.02;6.78;;;18.20;48.10;;;;;;5073219;28;20112;-49
2021/10/10 13:58:24;;;;;;;12.45;7.20;;;18.00;48.30;;;;;;5072402;28;20107;-50
2021/10/10 14:00:52;;;;;;;10.07;6.53;;;17.90;50.20;;;;;;5072945;28;20130;-49
2021/10/10 14:03:18;;;;;;;9.90;6.40;;;17.80;49.50;;;;;;5072959;28;20103;-49
2021/10/10 14:05:46;;;;;;;9.35;6.20;;;17.70;54.70;;;;;;5073205;28;20120;-50
2021/10/10 14:08:13;;;;;;;8.95;6.13;;;17.50;53.20;;;;;;5072566;28;20032;-48
2021/10/10 14:10:40;;;;;;;11.82;6.47;;;17.30;57.30;;;;;;5071576;28;20398;-49
2021/10/10 14:13:06;;;;;;;10.40;6.32;;;17.30;53.60;;;;;;5072584;28;20107;-51
2021/10/10 14:15:33;;;;;;;10.98;6.68;;;17.40;57.80;;;;;;5072071;28;20351;-53
2021/10/10 14:17:59;;;;;;;11.73;6.93;;;17.50;54.40;;;;;;5071667;28;20482;-48
2021/10/10 14:20:26;;;;;;;13.18;7.57;;;17.80;52.10;;;;;;5072769;28;20028;-49
2021/10/10 14:22:52;;;;;;;9.13;5.85;;;17.90;49.60;;;;;;5071914;28;20052;-50
2021/10/10 14:25:17;;;;;;;9.02;7.22;;;17.80;50.70;;;;;;5072469;28;20035;-51
2021/10/10 14:27:43;;;;;;;11.48;6.38;;;17.90;50.10;;;;;;5071668;28;20102;-48
2021/10/10 14:30:09;;;;;;;11.65;6.38;;;17.90;50.40;;;;;;5072061;28;20037;-50
2021/10/10 14:32:37;;;;;;;13.35;6.82;;;18.00;49.80;;;;;;5060738;28;20028;-51
2021/10/10 14:35:03;;;;;;;12.32;7.03;;;18.20;49.80;;;;;;5071059;28;20044;-49
2021/10/10 14:37:30;;;;;;;9.60;6.43;;;18.30;49.00;;;;;;5071539;28;20045;-48
2021/10/10 14:39:58;;;;;;;11.20;6.88;;;18.20;49.30;;;;;;5056497;28;20402;-51
2021/10/10 14:45:07;;;;;;;9.52;6.70;;;18.20;49.00;;;;;;5072071;28;20122;-49
2021/10/10 14:49:59;;;;;;;13.90;6.97;;;18.10;48.90;;;;;;5051491;28;20029;-51
2021/10/10 14:52:25;;;;;;;11.02;7.03;;;17.90;48.90;;;;;;5050293;28;20036;-48
2021/10/10 14:54:50;;;;;;;10.27;6.88;;;17.80;48.80;;;;;;5045381;28;20025;-49
2021/10/10 14:57:24;;;;;;;14.40;6.93;;;17.60;49.40;;;;;;5057219;28;20115;-48
2021/10/10 14:59:49;;;;;;;12.30;7.18;;;17.60;49.50;;;;;;5090507;28;20048;-51
2021/10/10 15:02:15;;;;;;;8.35;6.63;;;17.40;49.40;;;;;;5073894;28;20158;-50
2021/10/10 15:04:41;;;;;;;10.93;6.93;;;17.30;50.40;;;;;;5070391;28;20478;-48
2021/10/10 15:07:08;;;;;;;10.55;7.18;;;17.20;50.80;;;;;;5069743;28;20037;-50
2021/10/10 15:09:34;;;;;;;12.98;6.97;;;17.10;50.90;;;;;;5051834;28;20505;-49
2021/10/10 15:12:01;;;;;;;12.15;6.97;;;16.80;51.30;;;;;;5070836;28;20760;-49
2021/10/10 15:14:27;;;;;;;11.25;6.80;;;16.60;53.20;;;;;;5070372;28;20033;-48
2021/10/10 15:16:53;;;;;;;12.95;7.68;;;16.40;52.60;;;;;;5069953;28;20036;-48
2021/10/10 15:19:18;;;;;;;11.27;7.00;;;16.20;53.10;;;;;;5069282;28;20040;-52
2021/10/10 15:21:44;;;;;;;12.07;7.25;;;16.10;53.70;;;;;;5069521;28;20031;-48
2021/10/10 15:24:09;;;;;;;13.35;6.78;;;16.00;53.90;;;;;;5070107;28;20039;-48
2021/10/10 15:26:37;;;;;;;10.20;6.90;;;16.00;54.30;;;;;;5069768;28;20037;-48
2021/10/10 15:29:03;;;;;;;12.43;7.63;;;16.00;54.30;;;;;;5067389;28;20033;-48
2021/10/10 15:31:28;;;;;;;15.10;7.88;;;16.00;54.50;;;;;;5065692;28;20032;-48
2021/10/10 15:33:56;;;;;;;19.98;7.88;;;16.00;54.70;;;;;;5056217;28;20110;-49
2021/10/10 15:36:22;;;;;;;15.38;7.05;;;15.90;55.10;;;;;;5046709;28;20091;-48
2021/10/10 15:38:47;;;;;;;12.93;7.05;;;15.70;57.30;;;;;;5046727;28;20032;-48
2021/10/10 15:41:13;;;;;;;18.38;8.55;;;15.50;58.30;;;;;;5029683;28;20045;-48
2021/10/10 15:43:40;;;;;;;14.55;8.57;;;15.40;56.80;;;;;;5047451;28;20037;-48
2021/10/10 15:46:06;;;;;;;10.68;7.05;;;15.20;56.40;;;;;;5052197;28;20109;-49
2021/10/10 15:48:31;;;;;;;9.32;6.47;;;15.00;57.30;;;;;;5066249;28;20138;-48
2021/10/10 15:51:00;;;;;;;14.23;7.50;;;14.90;57.90;;;;;;5066946;28;20111;-48
2021/10/10 15:53:26;;;;;;;13.55;7.53;;;14.80;57.80;;;;;;5067798;28;20093;-49
2021/10/10 15:55:51;;;;;;;12.13;7.88;;;14.70;58.00;;;;;;5068123;28;20028;-48
2021/10/10 15:58:17;;;;;;;11.88;7.75;;;14.70;58.50;;;;;;5068411;28;20033;-51
2021/10/10 16:00:42;;;;;;;14.85;8.15;;;14.60;58.90;;;;;;5068369;28;20603;-50
2021/10/10 16:03:08;;;;;;;10.73;7.32;;;14.50;59.50;;;;;;5067794;28;20024;-50
2021/10/10 16:05:35;;;;;;;12.52;8.15;;;14.30;59.90;;;;;;5068686;28;20028;-48
2021/10/10 16:08:01;;;;;;;14.18;7.90;;;14.30;60.50;;;;;;5067985;28;20044;-48
2021/10/10 16:10:28;;;;;;;17.15;8.57;;;14.10;62.70;;;;;;5067815;28;20024;-48
2021/10/10 16:12:55;;;;;;;13.38;8.05;;;13.90;62.20;;;;;;5067952;28;20033;-48
2021/10/10 16:15:21;;;;;;;12.43;7.38;;;13.80;62.40;;;;;;5067828;28;20025;-51
2021/10/10 16:17:47;;;;;;;10.93;7.65;;;13.80;64.20;;;;;;5066496;28;20033;-48
2021/10/10 16:20:16;;;;;;;14.25;7.35;;;13.60;65.10;;;;;;5049879;28;20372;-47
2021/10/10 16:22:42;;;;;;;16.20;7.80;;;13.50;64.60;;;;;;5067750;28;20036;-48
2021/10/10 16:25:08;;;;;;;12.10;7.03;;;13.30;67.20;;;;;;5066476;28;20033;-47
2021/10/10 16:27:34;;;;;;;8.85;6.30;;;13.00;69.10;;;;;;5066698;28;20032;-48
2021/10/10 16:30:00;;;;;;;12.85;6.80;;;12.80;69.20;;;;;;5066952;28;20033;-47
2021/10/10 16:32:25;;;;;;;12.35;7.13;;;12.60;70.20;;;;;;5069806;28;20036;-47
2021/10/10 16:35:02;;;;;;;9.82;6.72;;;12.50;70.70;;;;;;5073923;28;20028;-48
2021/10/10 16:40:20;;;;;;;11.75;7.40;;;12.30;72.60;;;;;;5067285;28;20047;-48
2021/10/10 16:42:45;;;;;;;16.45;8.55;;;12.30;72.70;;;;;;5067350;28;20032;-47
2021/10/10 16:45:11;;;;;;;12.73;8.25;;;12.30;72.40;;;;;;5066972;28;20043;-48
2021/10/10 16:47:38;;;;;;;15.23;9.43;;;12.20;73.30;;;;;;5066396;28;20036;-49
2021/10/10 16:50:04;;;;;;;16.85;9.95;;;12.10;74.00;;;;;;5067024;28;20425;-47
2021/10/10 16:52:29;;;;;;;19.75;9.93;;;12.00;74.60;;;;;;5067251;28;20024;-47
2021/10/10 16:54:54;;;;;;;16.35;10.20;;;12.00;75.70;;;;;;5071546;28;20040;-47
2021/10/10 16:57:20;;;;;;;13.00;9.25;;;11.90;77.00;;;;;;5065318;28;20543;-46
2021/10/10 16:59:45;;;;;;;15.38;9.30;;;11.80;77.70;;;;;;5068329;28;20055;-47
2021/10/10 17:02:11;;;;;;;15.90;8.60;;;11.60;78.10;;;;;;5067117;28;20048;-47
2021/10/10 17:04:36;;;;;;;15.02;8.52;;;11.60;79.00;;;;;;5066484;28;20143;-48
2021/10/10 17:07:03;;;;;;;16.33;8.93;;;11.50;79.80;;;;;;5048292;28;20040;-47
2021/10/10 17:09:28;;;;;;;19.35;9.57;;;11.40;80.50;;;;;;5066616;28;20403;-48
2021/10/10 17:11:54;;;;;;;15.18;9.38;;;11.40;81.30;;;;;;5067815;28;20037;-47
2021/10/10 17:14:19;;;;;;;16.58;10.45;;;11.30;81.60;;;;;;5065936;28;20044;-46
2021/10/10 17:16:46;;;;;;;16.73;8.90;;;11.30;82.40;;;;;;5065361;28;20474;-48
2021/10/10 17:19:12;;;;;;;13.05;9.18;;;11.30;83.90;;;;;;5063849;28;20044;-47
2021/10/10 17:21:39;;;;;;;15.38;9.93;;;11.10;84.70;;;;;;5066956;28;20097;-47
2021/10/10 17:24:06;;;;;;;16.80;9.50;;;11.00;86.30;;;;;;5069039;28;20024;-47
2021/10/10 17:26:31;;;;;;;22.25;11.68;;;11.00;87.30;;;;;;5086156;28;20051;-47
2021/10/10 17:28:57;;;;;;;22.85;10.52;;;10.90;88.80;;;;;;5086096;28;20119;-47
2021/10/10 17:31:22;;;;;;;19.35;9.90;;;10.80;89.70;;;;;;5075090;28;20044;-48
2021/10/10 17:33:48;;;;;;;14.52;9.85;;;10.80;90.00;;;;;;5065559;28;20036;-47
2021/10/10 17:36:13;;;;;;;15.75;10.15;;;10.70;90.80;;;;;;5049489;28;20478;-48
2021/10/10 17:38:38;;;;;;;21.77;10.68;;;10.60;90.80;;;;;;5066498;28;20040;-47
2021/10/10 17:41:04;;;;;;;15.57;10.82;;;10.60;91.10;;;;;;5066876;28;20226;-48
2021/10/10 17:43:29;;;;;;;17.80;10.52;;;10.50;91.30;;;;;;5066645;28;20169;-47
2021/10/10 17:45:55;;;;;;;15.38;9.73;;;10.50;91.90;;;;;;5066978;28;20044;-47
2021/10/10 17:48:20;;;;;;;19.10;9.77;;;10.50;91.90;;;;;;5066087;28;20044;-47
2021/10/10 17:50:46;;;;;;;15.95;8.90;;;10.40;92.20;;;;;;5048489;28;20075;-47
2021/10/10 17:53:12;;;;;;;16.65;10.10;;;10.40;92.30;;;;;;5066691;28;20037;-48
2021/10/10 17:55:39;;;;;;;16.17;9.85;;;10.40;92.80;;;;;;5066655;28;20121;-47
2021/10/10 17:58:12;;;;;;;18.52;9.85;;;10.30;93.30;;;;;;5068122;28;20092;-47
2021/10/10 18:13:28;;;;;;;18.88;10.35;;;10.00;95.10;;;;;;5070340;28;20041;-46
2021/10/10 18:15:56;;;;;;;17.90;10.27;;;9.90;95.00;;;;;;5070290;28;20371;-47
2021/10/10 18:18:22;;;;;;;13.88;8.95;;;10.00;94.90;;;;;;5069059;28;20234;-47
2021/10/10 18:20:48;;;;;;;16.58;9.90;;;10.00;94.50;;;;;;5069930;28;20161;-47
2021/10/10 18:23:13;;;;;;;14.90;8.65;;;10.00;94.50;;;;;;5052122;28;20108;-47
2021/10/10 18:25:42;;;;;;;14.30;9.25;;;10.00;94.50;;;;;;5069555;28;20127;-47
2021/10/10 18:28:07;;;;;;;18.35;9.55;;;10.00;94.50;;;;;;5069103;28;20119;-47
2021/10/10 18:30:33;;;;;;;15.68;9.45;;;9.90;94.60;;;;;;5069233;28;20104;-47
2021/10/10 18:32:58;;;;;;;15.43;8.95;;;9.90;94.60;;;;;;5066931;28;20048;-47
2021/10/10 18:35:24;;;;;;;18.63;8.73;;;9.90;94.40;;;;;;5051823;28;20532;-47
2021/10/10 18:37:49;;;;;;;14.60;8.77;;;9.90;94.30;;;;;;5069727;28;20035;-47
2021/10/10 18:40:16;;;;;;;13.07;8.60;;;9.90;94.30;;;;;;5069507;28;20047;-49
2021/10/10 18:42:42;;;;;;;19.40;8.73;;;9.80;94.30;;;;;;5051659;28;20036;-47
2021/10/10 18:45:08;;;;;;;14.52;8.82;;;9.80;94.50;;;;;;5069728;28;20448;-49
2021/10/10 18:47:33;;;;;;;13.75;8.30;;;9.80;94.50;;;;;;5067730;28;20020;-47
2021/10/10 18:49:59;;;;;;;16.15;8.55;;;9.80;94.60;;;;;;5068466;28;20399;-47
2021/10/10 18:52:27;;;;;;;14.85;8.63;;;9.80;94.90;;;;;;5050575;28;20028;-46
2021/10/10 18:54:52;;;;;;;13.82;9.20;;;9.70;95.10;;;;;;5069372;28;20029;-47
2021/10/10 18:57:17;;;;;;;15.52;9.45;;;9.70;95.20;;;;;;5067887;28;20179;-49
2021/10/10 18:59:48;;;;;;;16.98;9.68;;;9.60;95.50;;;;;;5068906;28;20048;-46
2021/10/10 19:02:14;;;;;;;23.52;8.95;;;9.50;95.70;;;;;;5049199;28;20029;-47
2021/10/10 19:04:39;;;;;;;15.05;8.77;;;9.50;96.00;;;;;;5068402;28;20035;-47
2021/10/10 19:07:06;;;;;;;17.98;9.13;;;9.50;96.10;;;;;;5067979;28;20029;-48
2021/10/10 19:09:34;;;;;;;21.02;9.95;;;9.50;96.00;;;;;;5068222;28;20363;-46
2021/10/10 19:11:59;;;;;;;17.90;9.68;;;9.50;96.20;;;;;;5068748;28;20032;-48
2021/10/10 19:14:25;;;;;;;14.82;9.60;;;9.40;96.30;;;;;;5068195;28;20067;-48
2021/10/10 19:16:50;;;;;;;14.40;8.80;;;9.40;96.40;;;;;;5049818;28;20174;-47
2021/10/10 19:19:16;;;;;;;18.25;9.30;;;9.40;96.60;;;;;;5067993;28;20039;-47
2021/10/10 19:21:42;;;;;;;15.15;9.70;;;9.40;96.60;;;;;;5049528;28;20070;-47
2021/10/10 19:24:08;;;;;;;18.38;10.13;;;9.40;96.70;;;;;;5069245;28;20040;-47
2021/10/10 19:26:33;;;;;;;15.93;9.48;;;9.40;96.50;;;;;;5068960;28;20028;-52
2021/10/10 19:28:59;;;;;;;16.08;9.10;;;9.40;96.70;;;;;;5067919;28;20074;-47
2021/10/10 19:31:24;;;;;;;16.60;9.70;;;9.40;96.60;;;;;;5068444;28;20115;-48
2021/10/10 19:33:51;;;;;;;14.95;9.45;;;9.40;96.70;;;;;;5050639;28;20349;-47
2021/10/10 19:36:16;;;;;;;14.77;9.18;;;9.40;96.70;;;;;;5068487;28;20025;-47
2021/10/10 19:38:42;;;;;;;14.65;8.95;;;9.40;96.70;;;;;;5067540;28;20036;-50
2021/10/10 19:41:07;;;;;;;15.90;9.63;;;9.30;96.90;;;;;;5067947;28;20046;-47
2021/10/10 19:43:33;;;;;;;13.50;8.38;;;9.40;96.80;;;;;;5068895;28;20028;-48
2021/10/10 19:45:58;;;;;;;19.30;9.73;;;9.30;96.90;;;;;;5067243;28;20044;-48
2021/10/10 19:48:24;;;;;;;19.60;9.10;;;9.30;96.90;;;;;;5048369;28;20045;-47
2021/10/10 19:50:49;;;;;;;16.55;9.43;;;9.30;97.00;;;;;;5067422;28;20047;-48
2021/10/10 19:53:16;;;;;;;20.55;10.48;;;9.30;97.10;;;;;;5068171;28;20078;-53
2021/10/10 19:55:42;;;;;;;16.25;9.57;;;9.30;97.20;;;;;;5067810;28;20433;-46
2021/10/10 19:58:08;;;;;;;17.58;10.15;;;9.30;97.10;;;;;;5049689;28;20033;-49
2021/10/10 20:00:33;;;;;;;15.90;10.52;;;9.30;97.20;;;;;;5068400;28;20152;-48
2021/10/10 20:02:59;;;;;;;18.55;9.95;;;9.20;97.50;;;;;;5067260;28;20044;-49
2021/10/10 20:05:24;;;;;;;17.45;9.48;;;9.20;97.50;;;;;;5068348;28;20036;-50
2021/10/10 20:07:50;;;;;;;22.33;10.23;;;9.20;97.80;;;;;;5049569;28;20331;-48
2021/10/10 20:10:16;;;;;;;16.38;9.20;;;9.10;97.90;;;;;;5068447;28;20064;-48
2021/10/10 20:12:42;;;;;;;15.27;8.60;;;9.10;98.10;;;;;;5068418;28;20046;-47
2021/10/10 20:15:08;;;;;;;16.33;9.30;;;9.10;98.20;;;;;;5049948;28;20258;-48
2021/10/10 20:17:34;;;;;;;15.55;10.07;;;9.10;98.60;;;;;;5067139;28;20037;-50
2021/10/10 20:20:02;;;;;;;18.55;9.18;;;9.00;99.00;;;;;;5067743;28;20044;-49
2021/10/10 20:22:28;;;;;;;16.63;9.07;;;8.90;99.40;;;;;;5068165;28;20358;-49
2021/10/10 20:24:55;;;;;;;17.77;9.98;;;8.90;99.50;;;;;;5067575;28;20074;-49
2021/10/10 20:27:21;;;;;;;16.25;9.88;;;8.80;99.90;;;;;;5067367;28;20375;-48
2021/10/10 20:29:48;;;;;;;15.57;9.93;;;8.70;99.90;;;;;;5066942;28;20115;-47
2021/10/10 20:32:14;;;;;;;20.02;10.10;;;8.70;99.90;;;;;;5067085;28;20024;-47
2021/10/10 20:34:39;;;;;;;18.05;9.90;;;8.60;99.90;;;;;;5067136;28;20028;-47
2021/10/10 20:37:05;;;;;;;19.13;10.25;;;8.50;99.90;;;;;;5066466;28;20052;-47
2021/10/10 20:39:31;;;;;;;15.98;8.93;;;8.50;99.90;;;;;;5067065;28;20044;-48
2021/10/10 20:41:56;;;;;;;13.15;9.15;;;8.50;99.90;;;;;;5067542;28;20041;-48
2021/10/10 20:44:22;;;;;;;14.85;9.32;;;8.40;99.90;;;;;;5067433;28;20051;-47
2021/10/10 20:46:47;;;;;;;13.85;9.50;;;8.40;99.90;;;;;;5067186;28;20033;-51
2021/10/10 20:49:14;;;;;;;15.13;9.50;;;8.20;99.90;;;;;;5065750;28;20036;-51
2021/10/10 20:51:40;;;;;;;17.35;9.75;;;8.20;99.90;;;;;;5064894;28;20071;-48
2021/10/10 20:54:05;;;;;;;14.57;9.30;;;8.10;99.90;;;;;;5066348;28;20033;-47
2021/10/10 20:56:31;;;;;;;12.88;8.80;;;8.00;99.90;;;;;;5066828;28;20037;-47
2021/10/10 20:58:57;;;;;;;14.60;9.50;;;7.90;99.90;;;;;;5066441;28;20044;-48
2021/10/10 21:01:22;;;;;;;15.45;9.40;;;7.80;99.90;;;;;;5065512;28;20504;-47
2021/10/10 21:03:48;;;;;;;14.52;9.40;;;7.70;99.90;;;;;;5067438;28;20032;-49
2021/10/10 21:06:13;;;;;;;18.35;9.82;;;7.60;99.90;;;;;;5067556;28;20031;-49
2021/10/10 21:08:39;;;;;;;21.33;10.68;;;7.50;99.90;;;;;;5066404;28;20455;-48
2021/10/10 21:11:05;;;;;;;17.77;10.80;;;7.60;99.90;;;;;;5067478;28;20561;-47
2021/10/10 21:13:31;;;;;;;18.50;10.60;;;7.60;99.90;;;;;;5067531;28;20032;-46
2021/10/10 21:15:57;;;;;;;18.58;11.15;;;7.70;99.90;;;;;;5067401;28;20484;-47
2021/10/10 21:18:23;;;;;;;17.77;11.45;;;7.70;99.90;;;;;;5066201;28;20103;-47
2021/10/10 21:20:50;;;;;;;18.67;10.40;;;7.80;99.90;;;;;;5049089;28;20029;-47
2021/10/10 21:23:15;;;;;;;18.60;10.43;;;7.80;99.90;;;;;;5067111;28;20056;-47
2021/10/10 21:25:43;;;;;;;18.30;10.25;;;7.70;99.90;;;;;;5067032;28;20513;-48
2021/10/10 21:28:12;;;;;;;15.93;10.80;;;7.70;99.90;;;;;;5065910;28;20470;-50
2021/10/10 21:35:44;;;;;;;18.65;11.63;;;7.90;99.90;;;;;;5070781;28;20029;-48
2021/10/10 21:38:09;;;;;;;19.13;11.13;;;7.90;99.90;;;;;;5070456;28;20040;-49
2021/10/10 21:40:35;;;;;;;19.35;10.65;;;8.00;99.90;;;;;;5070445;28;20367;-46
2021/10/10 21:43:00;;;;;;;22.15;11.52;;;8.10;99.90;;;;;;5071388;28;20286;-45
2021/10/10 21:45:26;;;;;;;18.83;11.35;;;8.10;99.90;;;;;;5070499;28;20484;-46
2021/10/10 21:47:51;;;;;;;19.60;10.57;;;8.20;99.90;;;;;;5070001;28;20086;-46
2021/10/10 21:50:17;;;;;;;17.67;10.63;;;8.20;99.90;;;;;;5070213;28;20082;-46
2021/10/10 21:52:43;;;;;;;19.05;10.45;;;8.30;99.90;;;;;;5070941;28;20032;-49
2021/10/10 21:55:09;;;;;;;19.45;9.90;;;8.30;99.90;;;;;;5070494;28;20055;-46
2021/10/10 21:57:35;;;;;;;16.55;10.20;;;8.30;99.90;;;;;;5069689;28;20067;-47
2021/10/10 22:00:07;;;;;;;19.48;11.07;;;8.40;99.90;;;;;;5052105;28;20051;-46
2021/10/10 22:02:34;;;;;;;15.57;10.05;;;8.40;99.90;;;;;;5069447;28;20067;-46
2021/10/10 22:05:00;;;;;;;16.45;9.70;;;8.50;99.90;;;;;;5070579;28;20083;-46
2021/10/10 22:07:25;;;;;;;26.08;11.20;;;8.50;99.90;;;;;;5069857;28;20421;-47
2021/10/10 22:09:51;;;;;;;21.15;10.88;;;8.50;99.90;;;;;;5069891;28;20060;-47
2021/10/10 22:12:16;;;;;;;15.65;10.30;;;8.50;99.90;;;;;;5070321;28;20029;-47
2021/10/10 22:14:42;;;;;;;18.17;10.23;;;8.50;99.90;;;;;;5052329;28;20040;-46
2021/10/10 22:17:07;;;;;;;17.45;9.68;;;8.50;99.90;;;;;;5069357;28;20434;-49
2021/10/10 22:19:35;;;;;;;18.52;10.68;;;8.50;99.90;;;;;;5069966;28;20098;-47
2021/10/10 22:22:03;;;;;;;19.23;10.57;;;8.60;99.90;;;;;;5070481;28;20471;-47
2021/10/10 22:24:36;;;;;;;16.55;10.35;;;8.60;99.90;;;;;;5069957;28;20118;-47
2021/10/10 22:27:15;;;;;;;18.60;10.85;;;8.50;99.90;;;;;;5069456;28;20021;-47
2021/10/10 22:32:29;;;;;;;17.08;9.65;;;8.50;99.90;;;;;;5069866;28;20409;-47
2021/10/10 22:34:54;;;;;;;16.07;9.80;;;8.50;99.90;;;;;;5035302;28;20047;-48
2021/10/10 22:37:20;;;;;;;16.20;10.18;;;8.50;99.90;;;;;;5051074;28;20267;-46
2021/10/10 22:39:46;;;;;;;19.02;11.40;;;8.40;99.90;;;;;;5069973;28;20641;-46
2021/10/10 22:42:13;;;;;;;16.85;10.27;;;8.50;99.90;;;;;;5069349;28;20086;-46
2021/10/10 22:44:39;;;;;;;21.40;11.40;;;8.50;99.90;;;;;;5069420;28;20043;-46
2021/10/10 22:47:06;;;;;;;16.23;10.75;;;8.40;99.90;;;;;;5068523;28;20029;-46
2021/10/10 22:49:33;;;;;;;21.75;11.70;;;8.40;99.90;;;;;;5069986;28;20031;-46
2021/10/10 22:51:59;;;;;;;17.35;10.50;;;8.40;99.90;;;;;;5069935;28;20027;-47
2021/10/10 22:54:25;;;;;;;20.63;10.90;;;8.50;99.90;;;;;;5069165;28;20136;-47
2021/10/10 22:56:50;;;;;;;21.92;10.68;;;8.40;99.90;;;;;;5050989;28;20549;-49
2021/10/10 22:59:16;;;;;;;18.33;10.15;;;8.40;99.90;;;;;;5068384;28;20052;-47
2021/10/10 23:01:42;;;;;;;17.27;10.30;;;8.40;99.90;;;;;;5068642;28;20028;-46
2021/10/10 23:04:08;;;;;;;18.40;10.50;;;8.40;99.90;;;;;;5069124;28;20033;-47
2021/10/10 23:06:33;;;;;;;20.85;10.38;;;8.30;99.90;;;;;;5051338;28;20494;-46
2021/10/10 23:08:59;;;;;;;21.77;10.45;;;8.30;99.90;;;;;;5068517;28;20094;-46
2021/10/10 23:11:24;;;;;;;18.25;10.63;;;8.30;99.90;;;;;;5068896;28;20036;-46
2021/10/10 23:13:50;;;;;;;14.50;9.23;;;8.30;99.90;;;;;;5069203;28;20033;-47
2021/10/10 23:16:15;;;;;;;20.15;9.57;;;8.20;99.90;;;;;;5069090;28;20032;-47
2021/10/10 23:18:41;;;;;;;18.77;10.43;;;8.30;99.90;;;;;;5068036;28;20117;-47
2021/10/10 23:21:06;;;;;;;21.52;10.80;;;8.30;99.90;;;;;;5069070;28;20048;-47
2021/10/10 23:23:32;;;;;;;17.27;9.05;;;8.20;99.90;;;;;;5069157;28;20041;-47
2021/10/10 23:25:57;;;;;;;15.65;9.85;;;8.20;99.90;;;;;;5069100;28;20107;-47
2021/10/10 23:28:23;;;;;;;17.70;10.20;;;8.20;99.90;;;;;;5068475;28;20060;-48
2021/10/10 23:30:48;;;;;;;15.50;9.48;;;8.20;99.90;;;;;;5069149;28;20486;-47
2021/10/10 23:33:13;;;;;;;15.35;9.55;;;8.20;99.90;;;;;;5050028;28;20025;-46
2021/10/10 23:35:39;;;;;;;18.85;9.70;;;8.20;99.90;;;;;;5069010;28;20030;-47
2021/10/10 23:38:04;;;;;;;15.18;10.35;;;8.20;99.90;;;;;;5068530;28;20395;-47
2021/10/10 23:40:30;;;;;;;17.25;10.07;;;8.20;99.90;;;;;;5068618;28;20044;-46
2021/10/10 23:42:55;;;;;;;16.88;9.75;;;8.10;99.90;;;;;;5068733;28;20104;-46
2021/10/10 23:45:21;;;;;;;16.50;10.15;;;8.20;99.90;;;;;;5068322;28;20037;-46
2021/10/10 23:47:46;;;;;;;18.48;10.05;;;8.10;99.90;;;;;;5067262;28;20528;-46
2021/10/10 23:50:12;;;;;;;15.98;9.80;;;8.10;99.90;;;;;;5068449;28;20036;-46
2021/10/10 23:52:37;;;;;;;17.35;10.68;;;8.10;99.90;;;;;;5068928;28;20058;-47
2021/10/10 23:55:03;;;;;;;17.98;10.52;;;8.10;99.90;;;;;;5067746;28;20025;-46
2021/10/10 23:57:29;;;;;;;18.20;10.32;;;8.10;99.90;;;;;;5067837;28;20032;-46
2021/10/10 23:59:54;;;;;;;17.02;10.38;;;8.10;99.90;;;;;;5050046;28;20051;-46
